createdAt,value
2022-12-17T00:00:05.543Z,71.23
2022-12-17T00:02:50.582Z,70.87
2022-12-17T00:05:35.932Z,69.57
2022-12-17T00:08:20.745Z,69.27
2022-12-17T00:11:16.240Z,70.17
2022-12-17T00:14:01.022Z,66.60
2022-12-17T00:16:45.769Z,66.80
2022-12-17T00:19:30.827Z,65.57
2022-12-17T00:22:16.050Z,68.93
2022-12-17T00:25:08.479Z,70.40
2022-12-17T00:27:53.387Z,68.27
2022-12-17T00:30:38.583Z,65.47
2022-12-17T00:33:23.620Z,62.00
2022-12-17T00:36:12.408Z,56.87
2022-12-17T00:38:57.599Z,53.43
2022-12-17T00:41:42.724Z,56.80
2022-12-17T00:44:27.621Z,61.27
2022-12-17T00:47:12.479Z,58.50
2022-12-17T00:49:57.101Z,56.23
2022-12-17T00:52:42.017Z,53.53
2022-12-17T00:55:26.987Z,56.87
2022-12-17T00:58:13.102Z,53.90
2022-12-17T01:00:58.234Z,49.53
2022-12-17T01:03:43.418Z,49.60
2022-12-17T01:06:28.576Z,48.07
2022-12-17T01:09:13.359Z,45.63
2022-12-17T01:11:58.472Z,47.10
2022-12-17T01:14:43.611Z,51.10
2022-12-17T01:17:28.625Z,52.40
2022-12-17T01:20:13.561Z,51.07
2022-12-17T01:22:58.519Z,50.60
2022-12-17T01:25:43.635Z,47.57
2022-12-17T01:28:29.039Z,47.90
2022-12-17T01:31:17.435Z,48.30
2022-12-17T01:34:02.705Z,48.27
2022-12-17T01:36:47.505Z,45.23
2022-12-17T01:39:32.442Z,43.97
2022-12-17T01:42:17.287Z,43.40
2022-12-17T01:45:03.963Z,41.93
2022-12-17T01:47:50.542Z,35.87
2022-12-17T01:50:36.054Z,35.10
2022-12-17T01:53:22.824Z,36.20
2022-12-17T01:56:07.712Z,37.40
2022-12-17T01:58:53.575Z,38.50
2022-12-17T02:01:39.302Z,38.77
2022-12-17T02:04:24.993Z,38.87
2022-12-17T02:07:30.307Z,34.87
2022-12-17T02:10:25.772Z,32.00
2022-12-17T02:13:11.475Z,29.97
2022-12-17T02:16:02.138Z,29.93
2022-12-17T02:18:50.957Z,27.47
2022-12-17T02:21:36.773Z,29.87
2022-12-17T02:24:32.520Z,30.87
2022-12-17T02:27:19.564Z,31.80
2022-12-17T02:30:07.461Z,32.90
2022-12-17T02:32:53.754Z,32.03
2022-12-17T02:35:42.724Z,33.87
2022-12-17T02:38:38.469Z,30.23
2022-12-17T02:41:24.113Z,29.20
2022-12-17T02:44:10.555Z,26.27
2022-12-17T02:46:56.753Z,28.67
2022-12-17T02:49:41.631Z,33.03
2022-12-17T02:52:31.933Z,33.03
2022-12-17T02:55:19.670Z,33.23
2022-12-17T02:58:04.578Z,37.27
2022-12-17T03:00:49.493Z,38.67
2022-12-17T03:03:35.082Z,40.10
2022-12-17T03:06:20.459Z,39.13
2022-12-17T03:09:05.453Z,41.60
2022-12-17T03:11:50.391Z,40.47
2022-12-17T03:14:35.353Z,39.93
2022-12-17T03:17:20.158Z,39.47
2022-12-17T03:20:05.156Z,37.90
2022-12-17T03:22:50.016Z,37.10
2022-12-17T03:25:35.319Z,36.93
2022-12-17T03:28:27.676Z,35.80
2022-12-17T03:31:12.843Z,33.20
2022-12-17T03:33:58.179Z,31.80
2022-12-17T03:36:43.212Z,32.10
2022-12-17T03:39:28.104Z,29.30
2022-12-17T03:42:13.171Z,28.17
2022-12-17T03:44:58.008Z,27.40
2022-12-17T03:47:43.428Z,28.33
2022-12-17T03:50:29.006Z,24.87
2022-12-17T03:53:14.201Z,25.00
2022-12-17T03:55:59.376Z,23.70
2022-12-17T03:58:44.444Z,23.97
2022-12-17T04:01:29.684Z,23.47
2022-12-17T04:04:14.747Z,22.73
2022-12-17T04:06:59.587Z,24.33
2022-12-17T04:09:44.379Z,22.40
2022-12-17T04:12:29.347Z,21.97
2022-12-17T04:15:14.369Z,21.80
2022-12-17T04:17:59.339Z,22.40
2022-12-17T04:20:44.225Z,22.40
2022-12-17T04:23:29.048Z,22.23
2022-12-17T04:26:14.385Z,22.27
2022-12-17T04:28:59.223Z,21.97
2022-12-17T04:31:44.152Z,20.83
2022-12-17T04:34:29.198Z,21.40
2022-12-17T04:37:14.025Z,21.63
2022-12-17T04:39:59.268Z,22.47
2022-12-17T04:42:44.453Z,21.33
2022-12-17T04:45:29.732Z,21.03
2022-12-17T04:48:21.252Z,22.00
2022-12-17T04:51:14.011Z,22.77
2022-12-17T04:53:59.147Z,22.30
2022-12-17T04:56:44.348Z,21.80
2022-12-17T04:59:29.502Z,21.37
2022-12-17T05:02:14.906Z,21.93
2022-12-17T05:05:00.224Z,20.70
2022-12-17T05:07:49.863Z,20.23
2022-12-17T05:10:35.006Z,21.80
2022-12-17T05:13:20.566Z,23.37
2022-12-17T05:16:05.861Z,21.50
2022-12-17T05:18:50.821Z,21.60
2022-12-17T05:21:35.735Z,23.87
2022-12-17T05:24:20.837Z,23.03
2022-12-17T05:27:06.366Z,24.17
2022-12-17T05:29:51.450Z,24.10
2022-12-17T05:32:36.338Z,25.87
2022-12-17T05:35:21.393Z,25.73
2022-12-17T05:38:06.300Z,25.00
2022-12-17T05:40:51.353Z,23.30
2022-12-17T05:43:36.628Z,23.30
2022-12-17T05:46:22.003Z,23.90
2022-12-17T05:49:07.244Z,22.93
2022-12-17T05:51:52.241Z,23.17
2022-12-17T05:54:37.100Z,23.13
2022-12-17T05:57:22.375Z,24.27
2022-12-17T06:00:07.221Z,23.33
2022-12-17T06:02:52.524Z,22.40
2022-12-17T06:05:37.824Z,68.43
2022-12-17T06:08:23.901Z,29.87
2022-12-17T06:11:09.115Z,26.93
2022-12-17T06:13:54.432Z,31.43
2022-12-17T06:16:39.699Z,25.90
2022-12-17T06:19:24.967Z,24.97
2022-12-17T06:22:10.278Z,25.37
2022-12-17T06:24:55.649Z,24.93
2022-12-17T06:27:40.746Z,24.57
2022-12-17T06:30:25.955Z,25.03
2022-12-17T06:33:11.167Z,23.90
2022-12-17T06:35:56.337Z,24.17
2022-12-17T06:38:41.480Z,23.30
2022-12-17T06:41:26.594Z,25.07
2022-12-17T06:44:11.706Z,23.97
2022-12-17T06:46:56.952Z,23.50
2022-12-17T06:49:42.379Z,23.47
2022-12-17T06:52:27.698Z,23.83
2022-12-17T06:55:13.066Z,22.27
2022-12-17T06:57:58.403Z,23.07
2022-12-17T07:00:43.764Z,24.10
2022-12-17T07:03:29.951Z,24.67
2022-12-17T07:06:14.969Z,25.83
2022-12-17T07:08:59.879Z,26.57
2022-12-17T07:11:44.895Z,24.67
2022-12-17T07:14:30.057Z,23.23
2022-12-17T07:17:15.048Z,22.77
2022-12-17T07:19:59.930Z,26.00
2022-12-17T07:22:44.911Z,24.40
2022-12-17T07:25:29.741Z,25.17
2022-12-17T07:28:15.205Z,25.30
2022-12-17T07:31:00.023Z,25.37
2022-12-17T07:33:45.249Z,23.80
2022-12-17T07:36:30.461Z,25.43
2022-12-17T07:39:15.376Z,23.93
2022-12-17T07:42:00.356Z,25.10
2022-12-17T07:44:45.606Z,25.30
2022-12-17T07:47:30.636Z,24.13
2022-12-17T07:50:15.563Z,25.73
2022-12-17T07:53:00.685Z,26.20
2022-12-17T07:55:45.613Z,24.77
2022-12-17T07:58:30.547Z,27.00
2022-12-17T08:01:18.782Z,24.63
2022-12-17T08:04:04.004Z,27.97
2022-12-17T08:06:49.044Z,27.33
2022-12-17T08:09:34.016Z,25.50
2022-12-17T08:12:19.332Z,27.03
2022-12-17T08:15:04.345Z,27.77
2022-12-17T08:17:49.450Z,26.10
2022-12-17T08:20:34.639Z,25.60
2022-12-17T08:23:23.659Z,25.20
2022-12-17T08:26:08.564Z,29.73
2022-12-17T08:28:53.635Z,29.43
2022-12-17T08:31:38.943Z,27.83
2022-12-17T08:34:24.059Z,30.10
2022-12-17T08:37:09.149Z,31.07
2022-12-17T08:39:54.259Z,29.37
2022-12-17T08:42:39.260Z,29.37
2022-12-17T08:45:24.746Z,28.30
2022-12-17T08:48:09.899Z,29.90
2022-12-17T08:50:54.802Z,30.13
2022-12-17T08:53:40.177Z,29.67
2022-12-17T08:56:25.748Z,29.80
2022-12-17T08:59:10.729Z,29.23
2022-12-17T09:01:56.051Z,31.37
2022-12-17T09:04:41.362Z,32.13
2022-12-17T09:07:27.832Z,33.80
2022-12-17T09:10:13.644Z,34.77
2022-12-17T09:13:04.440Z,34.23
2022-12-17T09:15:49.928Z,32.00
2022-12-17T09:18:38.963Z,30.60
2022-12-17T09:21:24.145Z,32.10
2022-12-17T09:24:09.074Z,31.73
2022-12-17T09:26:54.601Z,31.03
2022-12-17T09:29:39.641Z,29.40
2022-12-17T09:32:38.528Z,30.90
2022-12-17T09:35:23.814Z,29.43
2022-12-17T09:38:15.549Z,31.23
2022-12-17T09:41:04.375Z,31.00
2022-12-17T09:43:52.850Z,31.10
2022-12-17T09:46:46.642Z,29.70
2022-12-17T09:49:39.751Z,28.77
2022-12-17T09:52:42.543Z,28.00
2022-12-17T09:55:39.390Z,27.13
2022-12-17T09:58:24.779Z,28.60
2022-12-17T10:01:10.415Z,27.07
2022-12-17T10:04:04.450Z,27.97
2022-12-17T10:06:50.506Z,27.70
2022-12-17T10:09:37.419Z,28.90
2022-12-17T10:12:33.182Z,29.27
2022-12-17T10:15:18.208Z,28.17
2022-12-17T10:18:03.565Z,26.37
2022-12-17T10:20:50.800Z,25.37
2022-12-17T10:23:51.283Z,27.50
2022-12-17T10:26:38.174Z,28.43
2022-12-17T10:29:24.970Z,28.63
2022-12-17T10:32:10.363Z,32.03
2022-12-17T10:35:00.492Z,29.47
2022-12-17T10:37:50.392Z,28.40
2022-12-17T10:40:44.050Z,28.37
2022-12-17T10:43:44.840Z,27.77
2022-12-17T10:46:30.313Z,27.43
2022-12-17T10:49:22.133Z,27.10
2022-12-17T10:52:08.378Z,27.13
2022-12-17T10:54:53.653Z,24.43
2022-12-17T10:57:57.053Z,24.27
2022-12-17T11:00:49.832Z,23.77
2022-12-17T11:03:54.557Z,21.87
2022-12-17T11:06:43.255Z,21.37
2022-12-17T11:09:50.386Z,19.63
2022-12-17T11:12:36.596Z,20.27
2022-12-17T11:15:26.242Z,21.50
2022-12-17T11:18:11.895Z,19.60
2022-12-17T11:21:09.148Z,22.33
2022-12-17T11:23:56.339Z,21.03
2022-12-17T11:26:43.866Z,21.33
2022-12-17T11:29:32.630Z,21.20
2022-12-17T11:32:24.035Z,23.97
2022-12-17T11:35:08.902Z,25.77
2022-12-17T11:38:00.567Z,25.10
2022-12-17T11:41:05.835Z,24.23
2022-12-17T11:43:50.700Z,22.93
2022-12-17T11:46:48.668Z,22.70
2022-12-17T11:49:41.036Z,22.33
2022-12-17T11:52:58.206Z,22.43
2022-12-17T11:55:46.115Z,27.27
2022-12-17T11:58:41.113Z,21.67
2022-12-17T12:01:46.487Z,24.73
2022-12-17T12:04:40.428Z,22.73
2022-12-17T12:07:47.794Z,23.30
2022-12-17T12:10:41.478Z,24.10
2022-12-17T12:13:38.407Z,24.20
2022-12-17T12:16:29.395Z,21.80
2022-12-17T12:19:29.510Z,23.10
2022-12-17T12:22:33.389Z,21.30
2022-12-17T12:25:41.460Z,24.00
2022-12-17T12:28:26.375Z,23.40
2022-12-17T12:31:16.689Z,24.27
2022-12-17T12:34:01.660Z,27.10
2022-12-17T12:36:47.155Z,29.90
2022-12-17T12:39:36.762Z,24.93
2022-12-17T12:42:30.315Z,22.77
2022-12-17T12:45:44.268Z,23.13
2022-12-17T12:52:02.846Z,22.40
2022-12-17T12:54:47.992Z,21.30
2022-12-17T12:57:51.940Z,20.37
2022-12-17T13:00:40.963Z,21.27
2022-12-17T13:03:31.110Z,21.80
2022-12-17T13:05:59.496Z,22.93
2022-12-17T13:08:25.927Z,25.10
2022-12-17T13:10:53.442Z,26.37
2022-12-17T13:13:39.633Z,25.47
2022-12-17T13:16:21.627Z,26.00
2022-12-17T13:18:48.237Z,25.30
2022-12-17T13:21:14.629Z,26.13
2022-12-17T13:23:41.369Z,29.40
2022-12-17T13:26:16.005Z,29.63
2022-12-17T13:28:43.642Z,30.30
2022-12-17T13:31:17.103Z,43.70
2022-12-17T13:33:51.200Z,30.07
2022-12-17T13:36:47.246Z,28.73
2022-12-17T13:39:13.659Z,32.23
2022-12-17T13:41:40.133Z,31.47
2022-12-17T13:44:22.011Z,29.33
2022-12-17T13:46:50.479Z,30.30
2022-12-17T13:49:22.000Z,29.07
2022-12-17T13:51:49.053Z,26.90
2022-12-17T13:54:17.066Z,25.83
2022-12-17T13:56:44.002Z,26.10
2022-12-17T13:59:22.290Z,24.87
2022-12-17T14:01:51.037Z,24.57
2022-12-17T14:04:28.072Z,26.37
2022-12-17T14:06:59.439Z,28.00
2022-12-17T14:09:35.139Z,30.40
2022-12-17T14:12:24.846Z,32.93
2022-12-17T14:14:51.626Z,29.33
2022-12-17T14:17:41.545Z,30.37
2022-12-17T14:20:11.448Z,30.90
2022-12-17T14:22:39.461Z,29.93
2022-12-17T14:25:13.561Z,29.50
2022-12-17T14:27:41.480Z,34.17
2022-12-17T14:30:21.619Z,27.97
2022-12-17T14:32:48.610Z,29.27
2022-12-17T14:35:28.714Z,30.67
2022-12-17T14:37:55.419Z,28.53
2022-12-17T14:40:24.575Z,29.03
2022-12-17T14:42:52.139Z,28.83
2022-12-17T14:45:24.040Z,28.93
2022-12-17T14:48:01.011Z,28.77
2022-12-17T14:50:29.408Z,29.03
2022-12-17T14:52:57.709Z,31.37
2022-12-17T14:55:25.817Z,31.77
2022-12-17T14:57:52.940Z,28.93
2022-12-17T15:00:20.042Z,28.33
2022-12-17T15:02:55.287Z,29.30
2022-12-17T15:05:22.004Z,30.63
2022-12-17T15:07:48.553Z,31.00
2022-12-17T15:10:17.688Z,32.00
2022-12-17T15:12:44.498Z,32.07
2022-12-17T15:15:14.315Z,32.43
2022-12-17T15:17:40.842Z,32.60
2022-12-17T15:20:10.135Z,30.20
2022-12-17T15:22:38.218Z,32.20
2022-12-17T15:25:05.158Z,29.67
2022-12-17T15:27:31.629Z,30.00
2022-12-17T15:29:58.168Z,29.33
2022-12-17T15:32:24.794Z,28.93
2022-12-17T15:34:51.629Z,25.60
2022-12-17T15:37:25.352Z,27.90
2022-12-17T15:39:52.392Z,26.10
2022-12-17T15:42:37.546Z,25.10
2022-12-17T15:45:04.595Z,26.33
2022-12-17T15:47:31.380Z,26.40
2022-12-17T15:49:58.001Z,27.47
2022-12-17T15:52:24.690Z,26.93
2022-12-17T15:54:51.260Z,27.33
2022-12-17T15:57:18.801Z,26.97
2022-12-17T15:59:45.785Z,28.07
2022-12-17T16:02:13.389Z,28.60
2022-12-17T16:04:43.413Z,26.83
2022-12-17T16:07:10.021Z,86.87
2022-12-17T16:09:36.443Z,53.47
2022-12-17T16:12:02.901Z,30.03
2022-12-17T16:14:29.364Z,31.43
2022-12-17T16:16:55.955Z,28.80
2022-12-17T16:19:22.654Z,30.37
2022-12-17T16:21:49.314Z,27.13
2022-12-17T16:24:15.830Z,26.60
2022-12-17T16:26:42.292Z,25.53
2022-12-17T16:29:08.736Z,24.73
2022-12-17T16:31:35.526Z,23.63
2022-12-17T16:34:02.062Z,23.00
2022-12-17T16:36:28.744Z,23.30
2022-12-17T16:38:55.435Z,22.67
2022-12-17T16:41:22.273Z,23.20
2022-12-17T16:43:49.028Z,22.23
2022-12-17T16:46:24.768Z,26.70
2022-12-17T16:48:51.308Z,29.13
2022-12-17T16:51:25.860Z,31.47
2022-12-17T16:53:54.921Z,31.40
2022-12-17T16:56:26.004Z,28.80
2022-12-17T16:58:52.759Z,29.80
2022-12-17T17:01:23.634Z,28.13
2022-12-17T17:03:50.516Z,29.73
2022-12-17T17:06:17.785Z,31.00
2022-12-17T17:08:44.670Z,30.43
2022-12-17T17:11:11.229Z,32.30
2022-12-17T17:13:38.119Z,33.13
2022-12-17T17:16:05.401Z,33.13
2022-12-17T17:18:32.061Z,36.27
2022-12-17T17:21:22.694Z,34.83
2022-12-17T17:23:50.385Z,33.77
2022-12-17T17:26:17.245Z,32.77
2022-12-17T17:28:45.380Z,35.40
2022-12-17T17:31:13.204Z,28.33
2022-12-17T17:33:41.090Z,27.50
2022-12-17T17:36:09.562Z,30.13
2022-12-17T17:38:37.333Z,32.47
2022-12-17T17:41:04.806Z,33.77
2022-12-17T17:43:33.013Z,37.47
2022-12-17T17:46:10.661Z,29.43
2022-12-17T17:48:39.189Z,31.33
2022-12-17T17:51:07.362Z,32.17
2022-12-17T17:53:34.526Z,31.97
2022-12-17T17:56:05.731Z,32.10
2022-12-17T17:58:33.064Z,32.40
2022-12-17T18:01:00.154Z,32.30
2022-12-17T18:03:30.029Z,32.50
2022-12-17T18:06:00.938Z,28.67
2022-12-17T18:08:29.172Z,29.30
2022-12-17T18:10:57.100Z,30.13
2022-12-17T18:13:42.454Z,31.00
2022-12-17T18:16:09.328Z,48.53
2022-12-17T18:18:36.820Z,35.67
2022-12-17T18:21:08.403Z,32.33
2022-12-17T18:23:35.726Z,32.53
2022-12-17T18:26:21.406Z,33.20
2022-12-17T18:28:48.329Z,31.83
2022-12-17T18:31:15.025Z,35.20
2022-12-17T18:33:43.025Z,34.90
2022-12-17T18:36:37.353Z,34.33
2022-12-17T18:39:09.682Z,35.20
2022-12-17T18:41:54.875Z,39.00
2022-12-17T18:44:21.577Z,36.73
2022-12-17T18:46:48.611Z,35.80
2022-12-17T18:49:19.179Z,38.33
2022-12-17T18:51:49.945Z,36.33
2022-12-17T18:54:18.042Z,36.27
2022-12-17T18:57:01.944Z,35.80
2022-12-17T18:59:29.728Z,34.77
2022-12-17T19:01:56.698Z,33.70
2022-12-17T19:04:23.883Z,33.17
2022-12-17T19:06:53.578Z,33.87
2022-12-17T19:09:20.376Z,37.83
2022-12-17T19:11:47.701Z,32.40
2022-12-17T19:14:14.822Z,30.73
2022-12-17T19:16:41.645Z,31.23
2022-12-17T19:19:10.968Z,28.27
2022-12-17T19:21:37.693Z,27.83
2022-12-17T19:24:06.100Z,25.07
2022-12-17T19:26:33.199Z,25.30
2022-12-17T19:29:00.562Z,25.17
2022-12-17T19:31:28.691Z,23.03
2022-12-17T19:33:56.075Z,21.63
2022-12-17T19:36:28.098Z,21.90
2022-12-17T19:38:56.210Z,21.57
2022-12-17T19:41:23.348Z,23.50
2022-12-17T19:43:54.821Z,21.60
2022-12-17T19:46:21.731Z,23.40
2022-12-17T19:48:49.918Z,24.37
2022-12-17T19:51:18.251Z,23.40
2022-12-17T19:53:45.730Z,23.20
2022-12-17T19:56:13.969Z,21.50
2022-12-17T19:58:41.265Z,21.20
2022-12-17T20:01:09.260Z,21.90
2022-12-17T20:03:37.353Z,21.13
2022-12-17T20:06:05.710Z,22.63
2022-12-17T20:08:33.315Z,22.80
2022-12-17T20:11:04.092Z,21.97
2022-12-17T20:13:30.984Z,21.07
2022-12-17T20:16:06.034Z,21.37
2022-12-17T20:18:32.800Z,21.27
2022-12-17T20:21:06.788Z,22.60
2022-12-17T20:23:33.581Z,20.87
2022-12-17T20:26:07.972Z,20.10
2022-12-17T20:28:35.255Z,22.17
2022-12-17T20:31:02.468Z,21.70
2022-12-17T20:33:29.683Z,20.07
2022-12-17T20:35:56.672Z,19.77
2022-12-17T20:38:23.486Z,21.43
2022-12-17T20:40:54.343Z,20.57
2022-12-17T20:43:21.010Z,19.83
2022-12-17T20:45:49.057Z,18.20
2022-12-17T20:48:16.111Z,21.67
2022-12-17T20:50:44.307Z,20.20
2022-12-17T20:53:11.126Z,19.07
2022-12-17T20:55:38.065Z,19.93
2022-12-17T20:58:06.137Z,19.57
2022-12-17T21:00:34.133Z,19.23
2022-12-17T21:03:01.170Z,19.50
2022-12-17T21:05:28.075Z,19.70
2022-12-17T21:07:54.878Z,20.03
2022-12-17T21:10:22.534Z,20.03
2022-12-17T21:13:07.764Z,19.10
2022-12-17T21:15:35.121Z,18.77
2022-12-17T21:18:01.919Z,19.07
2022-12-17T21:20:28.708Z,19.97
2022-12-17T21:22:55.647Z,21.90
2022-12-17T21:25:22.492Z,21.80
2022-12-17T21:27:49.250Z,19.10
2022-12-17T21:30:16.075Z,19.20
2022-12-17T21:32:42.845Z,19.83
2022-12-17T21:35:11.312Z,17.93
2022-12-17T21:37:37.817Z,16.70
2022-12-17T21:40:04.841Z,18.30
2022-12-17T21:42:50.484Z,18.10
2022-12-17T21:45:17.367Z,16.97
2022-12-17T21:47:44.424Z,16.63
2022-12-17T21:50:11.167Z,17.23
2022-12-17T21:52:37.901Z,16.17
2022-12-17T21:55:04.758Z,16.60
2022-12-17T21:57:31.626Z,16.90
2022-12-17T21:59:58.233Z,17.33
2022-12-17T22:02:24.985Z,18.43
2022-12-17T22:04:52.151Z,17.57
2022-12-17T22:07:44.762Z,17.07
2022-12-17T22:10:40.799Z,18.40
2022-12-17T22:13:21.556Z,19.00
2022-12-17T22:15:48.682Z,18.70
2022-12-17T22:18:15.357Z,19.80
2022-12-17T22:20:41.972Z,19.90
2022-12-17T22:23:08.742Z,19.87
2022-12-17T22:25:36.666Z,19.33
2022-12-17T22:28:03.335Z,20.00
2022-12-17T22:30:48.553Z,20.60
2022-12-17T22:33:22.677Z,20.70
2022-12-17T22:38:16.968Z,21.90
2022-12-17T22:42:30.507Z,20.40
2022-12-17T22:44:46.465Z,20.97
2022-12-17T22:44:53.477Z,19.67
2022-12-17T22:47:20.588Z,21.63
2022-12-17T22:49:47.035Z,21.90
2022-12-17T22:52:13.516Z,22.67
2022-12-17T22:54:42.031Z,22.43
2022-12-17T22:57:36.229Z,19.87
2022-12-17T22:59:58.115Z,19.50
2022-12-17T23:02:24.722Z,18.07
2022-12-17T23:04:51.327Z,19.17
2022-12-17T23:07:17.777Z,18.47
2022-12-17T23:09:44.360Z,18.63
2022-12-17T23:12:29.226Z,18.17
2022-12-17T23:14:55.631Z,17.03
2022-12-17T23:17:22.045Z,17.93
2022-12-17T23:19:48.490Z,17.20
2022-12-17T23:22:18.935Z,17.80
2022-12-17T23:24:48.534Z,17.47
2022-12-17T23:27:14.978Z,20.53
2022-12-17T23:29:41.387Z,18.80
2022-12-17T23:32:07.831Z,20.57
2022-12-17T23:34:34.235Z,20.83
2022-12-17T23:37:00.686Z,21.07
2022-12-17T23:39:27.327Z,20.67
2022-12-17T23:41:54.251Z,20.60
2022-12-17T23:44:20.778Z,22.00
2022-12-17T23:46:47.433Z,20.83
2022-12-17T23:49:14.899Z,20.50
2022-12-17T23:51:41.353Z,19.80
2022-12-17T23:54:07.841Z,21.07
2022-12-17T23:56:34.265Z,19.60
2022-12-17T23:59:01.334Z,18.43
